KUG1 KEWR-KACK
Flight info
| Callsign | KUG1 |
|---|---|
| Flight time | 0h 38m |
| Altitude | 29000 |
| Route | BAYYS SEALL/N0375F170 V188 GON DEEPO2 |
| Aircraft | A346/H-SDE2E3FGHIJ3J4J5M1RWXY/LB1D1 |
Departure
| Time | 2026-05-04 22:14 |
|---|---|
| Airport | Newark Liberty International Airport (KEWR) |
Arrival
| Time | 2026-05-04 22:53 |
|---|---|
| Airport | Nantucket Memorial Airport (KACK) |
| Time | Latitude | Longitude | Altitude | Speed | Heading |
|---|---|---|---|---|---|
| 2026-05-04 21:50 | 40.70368 | -74.16582 | 30 ft | 0 kts | 128° |
| 2026-05-04 22:00 | 40.70368 | -74.16583 | 31 ft | 1 kts | 128° |
| 2026-05-04 22:01 | 40.70378 | -74.16599 | 31 ft | 3 kts | 128° |
| 2026-05-04 22:01 | 40.70390 | -74.16620 | 31 ft | 3 kts | 128° |
| 2026-05-04 22:01 | 40.70402 | -74.16641 | 27 ft | 3 kts | 128° |
| 2026-05-04 22:01 | 40.70413 | -74.16658 | 29 ft | 3 kts | 139° |
| 2026-05-04 22:02 | 40.70426 | -74.16669 | 29 ft | 3 kts | 163° |
| 2026-05-04 22:02 | 40.70441 | -74.16671 | 30 ft | 2 kts | 182° |
| 2026-05-04 22:02 | 40.70461 | -74.16670 | 30 ft | 3 kts | 182° |
| 2026-05-04 22:02 | 40.70475 | -74.16669 | 30 ft | 1 kts | 182° |
| 2026-05-04 22:05 | 40.70462 | -74.16670 | 28 ft | 5 kts | 182° |
| 2026-05-04 22:05 | 40.70427 | -74.16672 | 29 ft | 5 kts | 182° |
| 2026-05-04 22:06 | 40.70387 | -74.16674 | 29 ft | 6 kts | 182° |
| 2026-05-04 22:06 | 40.70379 | -74.16674 | 31 ft | 0 kts | 182° |
| 2026-05-04 22:09 | 40.70372 | -74.16675 | 31 ft | 4 kts | 182° |
| 2026-05-04 22:09 | 40.70314 | -74.16663 | 31 ft | 11 kts | 141° |
| 2026-05-04 22:09 | 40.70293 | -74.16555 | 30 ft | 15 kts | 93° |
| 2026-05-04 22:10 | 40.70282 | -74.16461 | 30 ft | 3 kts | 91° |
| 2026-05-04 22:10 | 40.70282 | -74.16437 | 30 ft | 0 kts | 92° |
| 2026-05-04 22:13 | 40.70280 | -74.16403 | 30 ft | 9 kts | 94° |
| 2026-05-04 22:13 | 40.70274 | -74.16297 | 30 ft | 14 kts | 96° |
| 2026-05-04 22:13 | 40.70202 | -74.16252 | 29 ft | 15 kts | 202° |
| 2026-05-04 22:13 | 40.69964 | -74.16406 | 28 ft | 77 kts | 205° |
| 2026-05-04 22:14 | 40.69255 | -74.16859 | 36 ft | 148 kts | 204° |
| 2026-05-04 22:14 | 40.68197 | -74.17491 | 417 ft | 180 kts | 208° |
| 2026-05-04 22:14 | 40.66992 | -74.18163 | 1152 ft | 194 kts | 198° |
| 2026-05-04 22:14 | 40.65614 | -74.18456 | 1902 ft | 211 kts | 193° |
| 2026-05-04 22:15 | 40.64093 | -74.19001 | 2385 ft | 237 kts | 206° |
| 2026-05-04 22:15 | 40.62756 | -74.20257 | 3354 ft | 241 kts | 231° |
| 2026-05-04 22:15 | 40.62035 | -74.22270 | 4313 ft | 251 kts | 259° |
| 2026-05-04 22:15 | 40.62169 | -74.24562 | 5184 ft | 257 kts | 287° |
| 2026-05-04 22:16 | 40.63149 | -74.26566 | 5733 ft | 266 kts | 314° |
| 2026-05-04 22:16 | 40.64773 | -74.27778 | 5994 ft | 276 kts | 340° |
| 2026-05-04 22:16 | 40.66685 | -74.27902 | 5991 ft | 284 kts | 8° |
| 2026-05-04 22:16 | 40.68542 | -74.26955 | 6005 ft | 288 kts | 25° |
| 2026-05-04 22:17 | 40.70255 | -74.25567 | 5997 ft | 295 kts | 40° |
| 2026-05-04 22:17 | 40.71448 | -74.23288 | 6403 ft | 314 kts | 69° |
| 2026-05-04 22:17 | 40.72060 | -74.20527 | 7614 ft | 310 kts | 76° |
| 2026-05-04 22:17 | 40.72529 | -74.17770 | 8660 ft | 306 kts | 77° |
| 2026-05-04 22:18 | 40.72961 | -74.14984 | 9441 ft | 309 kts | 77° |
| 2026-05-04 22:18 | 40.73377 | -74.12185 | 9879 ft | 312 kts | 77° |
| 2026-05-04 22:18 | 40.73788 | -74.09360 | 9993 ft | 313 kts | 78° |
| 2026-05-04 22:18 | 40.74202 | -74.06518 | 9997 ft | 313 kts | 78° |
| 2026-05-04 22:19 | 40.74765 | -74.03793 | 10007 ft | 311 kts | 64° |
| 2026-05-04 22:19 | 40.75730 | -74.01245 | 10016 ft | 309 kts | 58° |
| 2026-05-04 22:19 | 40.76771 | -73.98762 | 10010 ft | 309 kts | 57° |
| 2026-05-04 22:19 | 40.77828 | -73.96283 | 10000 ft | 309 kts | 57° |
| 2026-05-04 22:20 | 40.78885 | -73.93807 | 9981 ft | 309 kts | 57° |
| 2026-05-04 22:20 | 40.79944 | -73.91325 | 9979 ft | 310 kts | 57° |
| 2026-05-04 22:20 | 40.81001 | -73.88847 | 9981 ft | 310 kts | 57° |
| 2026-05-04 22:20 | 40.82074 | -73.86338 | 9983 ft | 310 kts | 57° |
| 2026-05-04 22:21 | 40.83133 | -73.83862 | 9982 ft | 310 kts | 57° |
| 2026-05-04 22:21 | 40.84202 | -73.81367 | 9997 ft | 309 kts | 58° |
| 2026-05-04 22:21 | 40.85282 | -73.78879 | 10112 ft | 317 kts | 57° |
| 2026-05-04 22:21 | 40.86419 | -73.76278 | 10764 ft | 336 kts | 57° |
| 2026-05-04 22:22 | 40.87625 | -73.73515 | 11530 ft | 356 kts | 57° |
| 2026-05-04 22:22 | 40.88898 | -73.70592 | 12268 ft | 376 kts | 57° |
| 2026-05-04 22:22 | 40.90241 | -73.67508 | 12805 ft | 397 kts | 57° |
| 2026-05-04 22:22 | 40.91637 | -73.64298 | 13001 ft | 404 kts | 57° |
| 2026-05-04 22:23 | 40.93050 | -73.61054 | 13046 ft | 411 kts | 56° |
| 2026-05-04 22:23 | 40.94715 | -73.57890 | 13674 ft | 423 kts | 50° |
| 2026-05-04 22:23 | 40.96478 | -73.54866 | 14721 ft | 418 kts | 49° |
| 2026-05-04 22:23 | 40.98268 | -73.51818 | 15713 ft | 419 kts | 49° |
| 2026-05-04 22:24 | 41.00056 | -73.48736 | 16617 ft | 424 kts | 49° |
| 2026-05-04 22:24 | 41.01845 | -73.45606 | 17696 ft | 428 kts | 49° |
| 2026-05-04 22:24 | 41.03642 | -73.42435 | 18667 ft | 433 kts | 50° |
| 2026-05-04 22:24 | 41.05456 | -73.39213 | 19552 ft | 438 kts | 49° |
| 2026-05-04 22:25 | 41.07283 | -73.35958 | 20437 ft | 442 kts | 49° |
| 2026-05-04 22:25 | 41.09125 | -73.32668 | 21319 ft | 445 kts | 49° |
| 2026-05-04 22:25 | 41.10980 | -73.29352 | 22205 ft | 449 kts | 49° |
| 2026-05-04 22:25 | 41.12852 | -73.26001 | 23072 ft | 453 kts | 49° |
| 2026-05-04 22:26 | 41.14740 | -73.22618 | 23848 ft | 458 kts | 49° |
| 2026-05-04 22:26 | 41.16645 | -73.19202 | 24557 ft | 462 kts | 49° |
| 2026-05-04 22:26 | 41.18564 | -73.15760 | 25267 ft | 466 kts | 49° |
| 2026-05-04 22:26 | 41.20504 | -73.12272 | 25965 ft | 470 kts | 48° |
| 2026-05-04 22:27 | 41.22455 | -73.08759 | 26649 ft | 474 kts | 48° |
| 2026-05-04 22:27 | 41.24424 | -73.05212 | 27330 ft | 478 kts | 48° |
| 2026-05-04 22:27 | 41.26435 | -73.01666 | 28003 ft | 481 kts | 46° |
| 2026-05-04 22:27 | 41.28552 | -72.98289 | 28617 ft | 480 kts | 43° |
| 2026-05-04 22:28 | 41.30823 | -72.95033 | 28908 ft | 479 kts | 40° |
| 2026-05-04 22:28 | 41.35614 | -72.88875 | 28891 ft | 483 kts | 43° |
| 2026-05-04 22:28 | 41.37460 | -72.85072 | 28889 ft | 495 kts | 59° |
| 2026-05-04 22:29 | 41.38526 | -72.80663 | 28894 ft | 505 kts | 75° |
| 2026-05-04 22:29 | 41.38709 | -72.75959 | 28899 ft | 512 kts | 90° |
| 2026-05-04 22:29 | 41.38362 | -72.71217 | 28914 ft | 514 kts | 94° |
| 2026-05-04 22:30 | 41.37531 | -72.61732 | 28910 ft | 515 kts | 94° |
| 2026-05-04 22:30 | 41.36767 | -72.52235 | 28917 ft | 515 kts | 93° |
| 2026-05-04 22:31 | 41.36031 | -72.42731 | 28912 ft | 515 kts | 93° |
| 2026-05-04 22:31 | 41.35285 | -72.33235 | 28911 ft | 515 kts | 93° |
| 2026-05-04 22:32 | 41.34528 | -72.23742 | 28533 ft | 513 kts | 93° |
| 2026-05-04 22:32 | 41.34148 | -72.19032 | 28242 ft | 510 kts | 93° |
| 2026-05-04 22:32 | 41.33769 | -72.14345 | 27756 ft | 507 kts | 93° |
| 2026-05-04 22:32 | 41.33416 | -72.09686 | 27109 ft | 504 kts | 91° |
| 2026-05-04 22:33 | 41.33238 | -72.05060 | 26578 ft | 495 kts | 88° |
| 2026-05-04 22:33 | 41.33232 | -72.02034 | 26298 ft | 492 kts | 85° |
| 2026-05-04 22:33 | 41.33455 | -71.96040 | 25680 ft | 486 kts | 83° |
| 2026-05-04 22:33 | 41.33688 | -71.91571 | 25216 ft | 481 kts | 82° |
| 2026-05-04 22:34 | 41.33926 | -71.87142 | 24754 ft | 476 kts | 82° |
| 2026-05-04 22:34 | 41.34158 | -71.82762 | 24271 ft | 471 kts | 83° |
| 2026-05-04 22:34 | 41.34310 | -71.79823 | 23954 ft | 468 kts | 83° |
| 2026-05-04 22:34 | 41.34529 | -71.75521 | 23471 ft | 463 kts | 83° |
| 2026-05-04 22:35 | 41.34741 | -71.71258 | 22922 ft | 458 kts | 83° |
| 2026-05-04 22:35 | 41.34949 | -71.67045 | 22415 ft | 453 kts | 83° |
| 2026-05-04 22:35 | 41.35152 | -71.62881 | 21914 ft | 448 kts | 83° |
| 2026-05-04 22:35 | 41.35349 | -71.58753 | 21423 ft | 444 kts | 84° |
| 2026-05-04 22:36 | 41.35541 | -71.54715 | 20929 ft | 440 kts | 84° |
| 2026-05-04 22:36 | 41.35732 | -71.50659 | 20454 ft | 436 kts | 84° |
| 2026-05-04 22:36 | 41.35897 | -71.46632 | 19969 ft | 434 kts | 87° |
| 2026-05-04 22:36 | 41.35593 | -71.42637 | 19477 ft | 432 kts | 101° |
| 2026-05-04 22:37 | 41.34657 | -71.38838 | 18999 ft | 429 kts | 114° |
| 2026-05-04 22:37 | 41.33280 | -71.35323 | 18533 ft | 426 kts | 120° |
| 2026-05-04 22:37 | 41.31827 | -71.31900 | 18045 ft | 423 kts | 121° |
| 2026-05-04 22:37 | 41.30392 | -71.28553 | 17533 ft | 419 kts | 121° |
| 2026-05-04 22:38 | 41.28960 | -71.25190 | 17056 ft | 416 kts | 120° |
| 2026-05-04 22:38 | 41.27549 | -71.21850 | 16574 ft | 412 kts | 120° |
| 2026-05-04 22:38 | 41.26154 | -71.18532 | 16105 ft | 409 kts | 120° |
| 2026-05-04 22:38 | 41.24772 | -71.15236 | 15643 ft | 407 kts | 120° |
| 2026-05-04 22:39 | 41.23398 | -71.11957 | 15169 ft | 404 kts | 120° |
| 2026-05-04 22:39 | 41.22058 | -71.08657 | 14705 ft | 408 kts | 116° |
| 2026-05-04 22:39 | 41.21271 | -71.05036 | 14127 ft | 409 kts | 97° |
| 2026-05-04 22:39 | 41.21330 | -71.01255 | 13347 ft | 410 kts | 81° |
| 2026-05-04 22:40 | 41.21851 | -70.97553 | 12762 ft | 404 kts | 77° |
| 2026-05-04 22:40 | 41.22432 | -70.93911 | 12137 ft | 401 kts | 76° |
| 2026-05-04 22:40 | 41.23018 | -70.90299 | 11562 ft | 396 kts | 76° |
| 2026-05-04 22:40 | 41.23593 | -70.86731 | 10945 ft | 393 kts | 76° |
| 2026-05-04 22:41 | 41.24167 | -70.83200 | 10426 ft | 387 kts | 76° |
| 2026-05-04 22:41 | 41.24724 | -70.79757 | 10218 ft | 374 kts | 76° |
| 2026-05-04 22:41 | 41.25262 | -70.76436 | 9994 ft | 361 kts | 76° |
| 2026-05-04 22:41 | 41.25780 | -70.73216 | 9780 ft | 350 kts | 76° |
| 2026-05-04 22:42 | 41.26280 | -70.70101 | 9568 ft | 339 kts | 76° |
| 2026-05-04 22:42 | 41.26765 | -70.67078 | 9352 ft | 328 kts | 76° |
| 2026-05-04 22:42 | 41.27233 | -70.64143 | 9166 ft | 319 kts | 76° |
| 2026-05-04 22:42 | 41.27688 | -70.61299 | 8977 ft | 310 kts | 76° |
| 2026-05-04 22:43 | 41.28133 | -70.58520 | 8681 ft | 305 kts | 76° |
| 2026-05-04 22:43 | 41.28570 | -70.55793 | 8308 ft | 304 kts | 76° |
| 2026-05-04 22:43 | 41.29015 | -70.53061 | 7962 ft | 301 kts | 76° |
| 2026-05-04 22:43 | 41.29463 | -70.50333 | 7567 ft | 301 kts | 76° |
| 2026-05-04 22:44 | 41.29915 | -70.47615 | 7225 ft | 299 kts | 76° |
| 2026-05-04 22:44 | 41.30368 | -70.44915 | 6885 ft | 298 kts | 76° |
| 2026-05-04 22:44 | 41.30823 | -70.42218 | 6493 ft | 297 kts | 76° |
| 2026-05-04 22:44 | 41.31277 | -70.39545 | 6088 ft | 295 kts | 76° |
| 2026-05-04 22:45 | 41.31739 | -70.36882 | 5687 ft | 295 kts | 76° |
| 2026-05-04 22:45 | 41.32957 | -70.31687 | 4883 ft | 292 kts | 67° |
| 2026-05-04 22:45 | 41.33703 | -70.29187 | 4523 ft | 289 kts | 67° |
| 2026-05-04 22:46 | 41.34472 | -70.26724 | 4197 ft | 286 kts | 66° |
| 2026-05-04 22:46 | 41.35272 | -70.24312 | 3909 ft | 282 kts | 63° |
| 2026-05-04 22:46 | 41.36158 | -70.22013 | 3555 ft | 281 kts | 62° |
| 2026-05-04 22:46 | 41.37069 | -70.19721 | 3154 ft | 277 kts | 62° |
| 2026-05-04 22:47 | 41.37977 | -70.17479 | 2855 ft | 272 kts | 62° |
| 2026-05-04 22:47 | 41.38808 | -70.15287 | 2766 ft | 255 kts | 64° |
| 2026-05-04 22:47 | 41.39449 | -70.13222 | 2804 ft | 231 kts | 83° |
| 2026-05-04 22:47 | 41.39361 | -70.11204 | 2623 ft | 209 kts | 114° |
| 2026-05-04 22:48 | 41.38847 | -70.09469 | 2485 ft | 195 kts | 125° |
| 2026-05-04 22:48 | 41.38296 | -70.07855 | 2347 ft | 186 kts | 128° |
| 2026-05-04 22:48 | 41.37742 | -70.06322 | 2185 ft | 179 kts | 128° |
| 2026-05-04 22:48 | 41.37204 | -70.04833 | 2003 ft | 177 kts | 129° |
| 2026-05-04 22:49 | 41.36684 | -70.03387 | 1806 ft | 169 kts | 129° |
| 2026-05-04 22:49 | 41.36139 | -70.02083 | 1607 ft | 150 kts | 143° |
| 2026-05-04 22:49 | 41.35426 | -70.01173 | 1488 ft | 136 kts | 161° |
| 2026-05-04 22:49 | 41.34626 | -70.00565 | 1442 ft | 130 kts | 167° |
| 2026-05-04 22:50 | 41.33817 | -70.00083 | 1393 ft | 122 kts | 183° |
| 2026-05-04 22:50 | 41.32995 | -70.00073 | 1437 ft | 118 kts | 193° |
| 2026-05-04 22:50 | 41.32173 | -70.00139 | 1492 ft | 119 kts | 193° |
| 2026-05-04 22:50 | 41.31357 | -70.00225 | 1471 ft | 117 kts | 198° |
| 2026-05-04 22:51 | 41.30558 | -70.00429 | 1349 ft | 117 kts | 202° |
| 2026-05-04 22:51 | 41.29795 | -70.00792 | 1107 ft | 117 kts | 215° |
| 2026-05-04 22:51 | 41.29139 | -70.01452 | 1001 ft | 119 kts | 220° |
| 2026-05-04 22:51 | 41.28526 | -70.02175 | 728 ft | 118 kts | 223° |
| 2026-05-04 22:52 | 41.27945 | -70.02946 | 577 ft | 117 kts | 224° |
| 2026-05-04 22:52 | 41.27371 | -70.03720 | 404 ft | 117 kts | 223° |
| 2026-05-04 22:52 | 41.26784 | -70.04481 | 304 ft | 119 kts | 224° |
| 2026-05-04 22:52 | 41.26205 | -70.05259 | 169 ft | 117 kts | 223° |
| 2026-05-04 22:53 | 41.25653 | -70.05991 | 53 ft | 98 kts | 225° |
| 2026-05-04 22:53 | 41.25347 | -70.06384 | 53 ft | 35 kts | 226° |